Weather reports worldwide

Advertisment
Mont Aigoual, France (7560): temperature & dewpoint: 14.10.2020 15:00:00 - 20.10.2020 15:00:00 (CEST)Mont Aigoual, France (7560): wind speed & gusts: 14.10.2020 15:00:00 - 20.10.2020 15:00:00 (CEST)Mont Aigoual, France (7560): wind direction: 14.10.2020 15:00:00 - 20.10.2020 15:00:00 (CEST)Mont Aigoual, France (7560): visibility: 14.10.2020 15:00:00 - 20.10.2020 15:00:00 (CEST)Mont Aigoual, France (7560): precipitation: 14.10.2020 15:00:00 - 20.10.2020 15:00:00 (CEST)
Date & Time tt [°C] td [°C] ff [km/h] ff [kn] fx [km/h] fx [kn] dd vv [km] rr [mm]
20.10.2020 15:00:00 5,6 5,6 78 42 130 70 S 0,1 0,0
20.10.2020 14:00:00 5,5 5,5 70 38 121 66 S - 0,0
20.10.2020 13:00:00 5,2 5,2 64 35 109 59 S - 0,4
20.10.2020 12:00:00 5,2 5,2 76 41 119 64 S 0,1 0,6
20.10.2020 11:00:00 5,2 5,2 76 41 110 59 S 0,1 0,2
20.10.2020 10:00:00 5,4 5,4 66 36 113 61 S 0,1 0,8
20.10.2020 09:00:00 5,6 5,6 73 40 116 63 S 0,1 0,2
20.10.2020 08:00:00 5,8 5,8 76 41 109 59 S - 0,2
20.10.2020 07:00:00 6,0 6,0 71 39 107 58 S 0,1 0,0
20.10.2020 06:00:00 6,1 6,1 70 38 99 53 S - 0,0
20.10.2020 05:00:00 6,2 6,2 69 37 99 53 S 0,1 0,0
20.10.2020 04:00:00 6,1 6,1 65 35 106 58 S - 0,0
20.10.2020 03:00:00 6,2 6,2 65 35 98 53 S - 0,0
20.10.2020 02:00:00 6,1 6,1 68 37 108 58 S - 0,0
20.10.2020 01:00:00 5,9 5,9 70 38 108 58 S - 0,0
20.10.2020 00:00:00 5,8 5,8 67 36 111 60 S - 0,0
19.10.2020 23:00:00 5,7 5,7 70 38 106 57 S - 0,0
19.10.2020 22:00:00 5,1 5,1 61 33 103 56 S - 0,0
19.10.2020 21:00:00 5,1 5,1 67 36 101 54 S - 0,0
19.10.2020 20:00:00 5,1 5,1 67 36 97 52 S - 0,0
19.10.2020 19:00:00 4,7 4,7 55 30 86 47 S - 0,0
19.10.2020 18:00:00 4,6 4,6 55 30 82 44 S - 0,0
19.10.2020 17:00:00 4,3 4,3 52 28 74 40 S - 0,0
19.10.2020 16:00:00 4,1 4,1 48 26 78 42 S - 0,0
19.10.2020 15:00:00 3,9 3,9 53 28 71 38 S 0,1 0,0
19.10.2020 14:00:00 3,6 3,6 47 26 63 34 S 0,1 0,0
19.10.2020 13:00:00 3,4 3,4 45 24 60 32 S 0,1 0,0
19.10.2020 12:00:00 3,7 2,2 39 21 51 27 S 18 0,0
19.10.2020 11:00:00 3,5 1,5 35 19 49 27 S 20 0,0
19.10.2020 10:00:00 4,2 1,7 32 18 41 22 S 20 0,0
19.10.2020 09:00:00 5,9 -3,2 25 14 34 19 S 20 0,0
19.10.2020 08:00:00 5,6 -6,6 18 10 24 13 SSW 20 0,0
19.10.2020 07:00:00 6,3 -10,5 19 10 27 15 WSW 20 0,0
19.10.2020 06:00:00 6,6 -8,2 11 6 22 12 WSW 20 0,0
19.10.2020 05:00:00 6,1 -6,8 20 11 25 14 W 20 0,0
19.10.2020 04:00:00 5,1 -5,6 22 12 24 13 W 20 0,0
19.10.2020 03:00:00 4,9 -3,4 20 11 30 16 W 20 0,0
19.10.2020 02:00:00 5,1 -3,7 25 13 34 19 WNW 20 0,0
19.10.2020 01:00:00 5,5 -3,9 27 15 34 19 WNW 20 0,0
19.10.2020 00:00:00 4,8 -1,4 26 14 32 17 WNW 20 0,0
18.10.2020 23:00:00 4,3 1,7 21 11 25 14 W 20 0,0
18.10.2020 22:00:00 4,1 2,4 18 10 25 14 W 20 0,0
18.10.2020 21:00:00 4,3 2,3 9 5 14 8 W 20 0,0
18.10.2020 20:00:00 4,5 2,0 13 7 22 12 NW 20 0,0
18.10.2020 19:00:00 5,9 1,2 11 6 16 9 NNW 20 0,0
18.10.2020 18:00:00 7,8 1,2 9 5 22 12 WNW 20 0,0
18.10.2020 17:00:00 8,1 0,8 9 5 25 14 NW 20 0,0
18.10.2020 16:00:00 8,0 0,7 11 6 25 14 NNW 20 0,0
18.10.2020 15:00:00 7,4 1,5 18 10 29 16 NW 20 0,0
18.10.2020 14:00:00 7,8 1,0 10 5 23 12 NNE 20 0,0
18.10.2020 13:00:00 7,0 0,0 14 7 23 13 N 20 0,0
18.10.2020 12:00:00 6,7 -0,3 11 6 30 16 N 20 0,0
18.10.2020 11:00:00 6,4 -2,0 20 11 36 20 N 20 0,0
18.10.2020 10:00:00 5,2 -2,9 28 15 41 22 N 20 0,0
18.10.2020 09:00:00 3,7 -2,7 31 17 52 28 N 20 0,0
18.10.2020 08:00:00 1,5 -1,6 40 22 53 29 NW 20 0,0
18.10.2020 07:00:00 1,4 -0,7 45 24 68 37 NNW 20 0,0
18.10.2020 06:00:00 0,9 -0,6 54 29 68 37 NW 20 0,0
18.10.2020 05:00:00 1,9 -1,7 51 28 65 35 NNW 20 0,0
18.10.2020 04:00:00 3,8 -3,3 48 26 69 37 NNW 20 0,0
18.10.2020 03:00:00 3,6 -3,0 49 27 74 40 NNW 20 0,0
18.10.2020 02:00:00 2,8 -2,1 50 27 68 37 NW 20 0,0
18.10.2020 01:00:00 2,3 -1,7 23 13 49 26 N 20 0,0
18.10.2020 00:00:00 0,9 0,8 29 16 42 23 NNW 11 0,0
17.10.2020 23:00:00 1,3 1,3 35 19 40 22 NW 7 0,0
17.10.2020 22:00:00 1,9 1,2 23 12 29 16 W 19 0,0
17.10.2020 21:00:00 2,9 1,6 26 14 31 17 W 20 0,0
17.10.2020 20:00:00 2,7 1,7 10 6 28 15 W 20 0,0
17.10.2020 19:00:00 4,4 1,9 9 5 22 12 WSW 20 0,0
17.10.2020 18:00:00 5,9 2,2 14 8 19 10 WNW 20 0,0
17.10.2020 17:00:00 6,6 1,9 10 6 21 11 WNW 20 0,0
17.10.2020 16:00:00 5,6 2,2 5 3 17 9 WNW 20 0,0
17.10.2020 15:00:00 5,1 1,9 4 2 15 8 NE 20 0,0
17.10.2020 14:00:00 5,1 2,4 4 2 23 13 ENE 20 0,0
17.10.2020 13:00:00 3,9 2,3 5 3 16 9 E 20 0,0
17.10.2020 12:00:00 2,6 1,7 3 1 11 6 N 20 0,0
17.10.2020 11:00:00 2,7 1,4 3 2 13 7 NNE 20 0,0
17.10.2020 10:00:00 1,4 0,4 8 5 15 8 N 20 0,0
17.10.2020 09:00:00 0,4 0,0 13 7 19 11 N 20 0,0
17.10.2020 08:00:00 0,1 0,0 17 9 28 15 N 17 0,0
17.10.2020 07:00:00 0,1 0,1 23 13 29 16 N 2,3 0,0
17.10.2020 06:00:00 0,3 0,2 23 12 34 19 N 20 0,0
17.10.2020 05:00:00 0,0 0,0 29 16 35 19 N 0,3 0,0
17.10.2020 04:00:00 0,2 0,2 26 14 47 26 N 11 0,0
17.10.2020 03:00:00 0,4 0,3 36 19 51 28 N 20 0,0
17.10.2020 02:00:00 0,2 0,2 34 19 60 33 N 0,8 0,0
17.10.2020 01:00:00 0,5 0,5 41 22 61 33 N 1,2 0,0
17.10.2020 00:00:00 0,1 0,1 50 27 63 34 N 0,7 0,0
16.10.2020 23:00:00 0,2 0,1 43 23 59 32 N 14 0,0
16.10.2020 22:00:00 0,1 -0,3 39 21 79 43 N 20 0,0
16.10.2020 21:00:00 0,3 -0,3 52 28 72 39 N 20 0,0
16.10.2020 20:00:00 0,6 0,6 47 26 66 36 N 11 0,0
16.10.2020 19:00:00 0,9 0,9 37 20 59 32 N 0,2 0,0
16.10.2020 18:00:00 1,2 1,2 37 20 53 29 N 6 0,0
16.10.2020 17:00:00 1,4 1,3 34 18 58 31 N 20 0,0
16.10.2020 16:00:00 1,7 1,3 46 25 73 39 N 20 0,0
16.10.2020 15:00:00 1,9 1,6 53 29 81 44 N 20 0,0
16.10.2020 14:00:00 1,4 1,4 51 28 87 47 N 17 0,0
16.10.2020 13:00:00 0,9 0,9 56 30 92 50 N 0,4 0,0
16.10.2020 12:00:00 0,6 0,6 70 38 91 49 N 0,2 0,0
16.10.2020 11:00:00 0,2 0,2 58 31 91 49 NNW 0,1 0,0
16.10.2020 10:00:00 0,0 0,0 64 35 98 53 N 0,3 0,0
16.10.2020 09:00:00 -0,2 -0,2 72 39 108 59 N 0,2 0,0
16.10.2020 08:00:00 -0,3 -0,3 79 42 112 61 N 0,2 0,0
16.10.2020 07:00:00 -0,3 -0,3 76 41 107 58 N 0,2 0,0
16.10.2020 06:00:00 -0,4 -0,4 71 38 108 59 N 0,2 0,0
16.10.2020 05:00:00 -0,4 -0,4 73 39 106 57 NNW 0,1 0,0
16.10.2020 04:00:00 -0,5 -0,5 76 41 133 72 N 0,1 0,0
16.10.2020 03:00:00 -0,7 -0,7 68 37 100 54 NNW 0,1 0,0
16.10.2020 02:00:00 -0,8 -0,8 64 35 106 57 N 0,2 0,0
16.10.2020 01:00:00 -1,0 -1,0 58 32 91 49 N 0,2 0,0
16.10.2020 00:00:00 -1,0 -1,0 64 35 104 56 N 0,2 0,0
15.10.2020 23:00:00 -1,0 -1,0 54 29 108 58 N 0,1 0,0
15.10.2020 22:00:00 -1,1 -1,1 76 41 114 62 N 0,2 0,0
15.10.2020 21:00:00 -1,2 -1,2 64 35 101 54 NNW 0,2 0,0
15.10.2020 20:00:00 -1,1 -1,2 68 37 103 56 NNW 16 0,0
15.10.2020 19:00:00 -0,9 -1,0 63 34 101 55 NNW 15 0,0
15.10.2020 18:00:00 -0,6 -1,0 67 36 100 54 N 9 0,0
15.10.2020 17:00:00 -0,2 -1,3 69 37 110 60 NNW 20 0,0
15.10.2020 16:00:00 -0,1 -1,4 69 37 104 56 N 20 0,0
15.10.2020 15:00:00 0,3 -1,0 52 28 90 49 N 20 0,0
15.10.2020 14:00:00 0,4 -1,5 54 29 85 46 N 20 0,0
15.10.2020 13:00:00 0,3 -0,8 53 29 91 49 N 20 0,0
15.10.2020 12:00:00 -0,8 -1,2 67 36 107 58 N 20 0,0
15.10.2020 11:00:00 -1,4 -1,5 75 40 107 58 N 19 0,0
15.10.2020 10:00:00 -1,5 -1,5 76 41 112 61 NNW 0,8 0,0
15.10.2020 09:00:00 -1,7 -1,7 81 44 107 58 N 3,5 0,0
15.10.2020 08:00:00 -1,5 -1,5 65 35 89 48 N 1,5 0,0
15.10.2020 07:00:00 -1,0 -1,0 64 34 86 47 N 0,4 0,0
15.10.2020 06:00:00 -0,6 -0,6 63 34 87 47 N 0,3 0,0
15.10.2020 05:00:00 -0,5 -0,5 57 31 78 42 NNW 0,1 0,0
15.10.2020 04:00:00 -0,4 -0,4 58 31 87 47 N 0,1 0,0
15.10.2020 03:00:00 -0,4 -0,4 54 29 79 43 NNW 0,1 0,0
15.10.2020 02:00:00 -0,5 -0,5 49 26 69 38 N 11 0,0
15.10.2020 01:00:00 -0,6 -0,6 44 24 63 34 N 0,4 0,0
15.10.2020 00:00:00 -0,4 -0,4 39 21 64 34 N 0,1 0,0
14.10.2020 23:00:00 -0,3 -0,3 42 23 67 36 N 0,2 0,0
14.10.2020 22:00:00 -0,2 -0,2 51 27 67 36 N 0,2 0,0
14.10.2020 21:00:00 0,1 0,1 46 25 55 30 N 0,1 0,0
14.10.2020 20:00:00 0,2 0,2 40 22 54 29 NNW 0,2 0,0
14.10.2020 19:00:00 0,2 0,2 37 20 56 30 NNW 0,2 0,2
14.10.2020 18:00:00 0,3 0,3 31 17 42 23 NW 0,3 0,2
14.10.2020 17:00:00 1,5 1,5 24 13 34 18 NW 20 0,0
14.10.2020 16:00:00 1,0 1,0 25 13 33 18 NW 0,3 0,0
14.10.2020 15:00:00 1,9 1,9 16 9 26 14 NW 1,9 0,0

tt = temperature
td = dewpoint
ff = wind speed
fx = gusts
dd = wind direction
vv = visibility
rr = precipitation

Next stations